LiveATC.Net - Listen to live air traffic control over the Internet!


ICAO: KRIL  IATA: RIL   Airport: Rifle Garfield County Airport
City: Rifle   State/Province: Colorado
Country: United States   Continent: North America
KRIL METAR Weather: KRIL 140953Z AUTO 00000KT 10SM CLR M04/M09 A3026 RMK AO2 SLP240 T10391094 $
KRIL Flight Activity (FlightAware)
KRIL Airport Info   (iFlightPlanner)
KRIL VFR Sectional Chart   (iFlightPlanner) 
KRIL IFR Low Chart   (iFlightPlanner) 

KRIL CTAF/ZDV
Feed Status: UP   Listeners: 0
Listen in your browser - HTML5 player (in browser, HTML5)
Click here to listen with your own player (launches your MP3 player)
Archive Access: KRIL CTAF/ZDV
FacilityFrequency
Denver Center (Low/Approach)134.950
Emergency/Guard121.500
Rifle CTAF122.800

NOTICE

Unauthorized use prohibited. See LiveATC.net Terms of Service


Airport/ARTCC Code
Frequency Search
(e.g., 124.400, 128.75)
Site-wide search
 


Browse LiveATC Feeds
Top 50 LiveATC Feeds
LiveATC Feed Map
Bad Weather Areas

LiveATC FAQ
Offer LiveATC feed
Contact LiveATC.net
Press Inquiries

LiveATC on iPhone
LiveATC on Android

Windows Phone
Windows 8/10

LiveATC Mobile
(Mobile browser)

ATC Audio Archives
Interesting Recordings

LiveATC Forums


Home Page
About LiveATC.net
Make a Donation
Terms of Use
Privacy Policy

Canadian Air Freqs

AIRMETs/SIGMETs

FAA Airport Status
Nat'l Airspace Status
Arrival Demand Charts


Server Software By:
Icecast.org
Liquidsoap